Time;durP1;ratioP1;P1;durP2;ratioP2;P2;SDS_P1;SDS_P2;PMS_P1;PMS_P2;Temp;Humidity;BMP_temperature;BMP_pressure;BME280_temperature;BME280_humidity;BME280_pressure;Samples;Min_cycle;Max_cycle;Signal;HPM_P1;HPM_P2
2022/04/16 00:02:05;;;;;;;35.50;17.10;;;7.00;99.90;;;;;;5076607;28;20025;-81
2022/04/16 00:04:33;;;;;;;34.50;16.05;;;7.00;99.90;;;;;;5058109;28;20013;-81
2022/04/16 00:06:59;;;;;;;33.00;15.68;;;7.00;99.90;;;;;;5076281;28;20123;-81
2022/04/16 00:09:27;;;;;;;28.20;15.35;;;7.00;99.90;;;;;;5076399;28;20029;-81
2022/04/16 00:11:52;;;;;;;26.85;13.77;;;7.00;99.90;;;;;;5076376;28;20364;-81
2022/04/16 00:14:19;;;;;;;26.95;13.77;;;7.00;99.90;;;;;;5076120;28;20023;-81
2022/04/16 00:16:46;;;;;;;27.83;13.25;;;7.00;99.90;;;;;;5076209;28;20020;-81
2022/04/16 00:19:11;;;;;;;25.17;11.90;;;6.90;99.90;;;;;;5075699;28;20028;-81
2022/04/16 00:21:38;;;;;;;21.05;11.70;;;6.90;99.90;;;;;;5075925;28;20468;-81
2022/04/16 00:24:04;;;;;;;21.40;11.32;;;6.90;99.90;;;;;;5076080;28;20025;-81
2022/04/16 00:26:29;;;;;;;24.98;12.52;;;6.90;99.90;;;;;;5057924;28;20516;-80
2022/04/16 00:28:55;;;;;;;22.13;11.57;;;6.90;99.90;;;;;;5075879;28;20031;-81
2022/04/16 00:31:21;;;;;;;20.95;10.65;;;6.90;99.90;;;;;;5075939;28;20030;-80
2022/04/16 00:33:46;;;;;;;20.90;10.73;;;6.90;99.90;;;;;;5075487;28;20024;-80
2022/04/16 00:36:14;;;;;;;21.88;11.00;;;6.90;99.90;;;;;;5075894;28;20414;-81
2022/04/16 00:38:40;;;;;;;19.77;11.95;;;6.90;99.90;;;;;;5075810;28;20074;-80
2022/04/16 00:41:06;;;;;;;23.55;11.52;;;6.90;99.90;;;;;;5057919;28;20444;-81
2022/04/16 00:43:32;;;;;;;27.83;13.63;;;6.90;99.90;;;;;;5075425;28;20104;-80
2022/04/16 00:45:59;;;;;;;26.88;11.82;;;6.80;99.90;;;;;;5057836;28;20056;-81
2022/04/16 00:48:25;;;;;;;30.90;12.85;;;6.80;99.90;;;;;;5075440;28;20074;-80
2022/04/16 00:50:52;;;;;;;28.27;12.85;;;6.80;99.90;;;;;;5075583;28;20054;-80
2022/04/16 00:53:18;;;;;;;24.92;12.85;;;6.80;99.90;;;;;;5075165;28;20020;-81
2022/04/16 00:55:44;;;;;;;22.23;12.00;;;6.80;99.90;;;;;;5075422;28;20016;-80
2022/04/16 00:58:10;;;;;;;23.60;11.32;;;6.70;99.90;;;;;;5075400;28;20031;-81
2022/04/16 01:00:36;;;;;;;24.38;12.05;;;6.70;99.90;;;;;;5074714;28;20488;-81
2022/04/16 01:03:02;;;;;;;21.65;11.65;;;6.70;99.90;;;;;;5075043;28;20089;-80
2022/04/16 01:05:31;;;;;;;19.38;10.27;;;6.60;99.90;;;;;;5075256;28;20028;-80
2022/04/16 01:07:59;;;;;;;26.10;11.13;;;6.70;99.90;;;;;;5075096;28;20032;-80
2022/04/16 01:10:26;;;;;;;23.00;10.02;;;6.60;99.90;;;;;;5057168;28;20032;-80
2022/04/16 01:12:56;;;;;;;19.08;9.73;;;6.60;99.90;;;;;;5075163;28;20025;-80
2022/04/16 01:15:23;;;;;;;21.77;8.07;;;6.60;99.90;;;;;;5075112;28;20029;-81
2022/04/16 01:17:50;;;;;;;16.58;7.13;;;6.50;99.90;;;;;;5056790;28;20368;-80
2022/04/16 01:20:16;;;;;;;12.95;6.40;;;6.40;99.90;;;;;;5074739;28;20040;-80
2022/04/16 01:22:45;;;;;;;12.57;5.75;;;6.40;99.90;;;;;;5074862;28;20373;-81
2022/04/16 01:25:11;;;;;;;10.30;5.65;;;6.30;99.90;;;;;;5056777;28;20036;-80
2022/04/16 01:27:43;;;;;;;9.15;5.32;;;6.30;99.90;;;;;;5074785;28;20020;-80
2022/04/16 01:30:10;;;;;;;11.25;5.68;;;6.30;99.90;;;;;;5075006;28;20422;-80
2022/04/16 01:32:36;;;;;;;7.60;5.22;;;6.30;99.90;;;;;;5074143;28;20407;-80
2022/04/16 01:35:05;;;;;;;10.52;5.13;;;6.20;99.90;;;;;;5056725;28;20431;-80
2022/04/16 01:37:34;;;;;;;8.43;5.05;;;6.20;99.90;;;;;;5074700;28;20104;-81
2022/04/16 01:40:04;;;;;;;8.45;5.50;;;6.20;99.90;;;;;;5074812;28;20044;-81
2022/04/16 01:42:32;;;;;;;10.77;5.55;;;6.20;99.90;;;;;;5074556;28;20024;-80
2022/04/16 01:45:05;;;;;;;9.55;5.63;;;6.20;99.90;;;;;;5074413;28;20116;-80
2022/04/16 01:47:33;;;;;;;13.65;5.20;;;6.10;99.90;;;;;;5074288;28;20062;-80
2022/04/16 01:49:59;;;;;;;11.50;5.88;;;6.10;99.90;;;;;;5074543;28;20028;-80
2022/04/16 01:52:24;;;;;;;12.00;5.20;;;6.10;99.90;;;;;;5056279;28;20032;-80
2022/04/16 01:54:51;;;;;;;9.80;4.68;;;6.00;99.90;;;;;;5074313;28;20035;-80
2022/04/16 01:57:20;;;;;;;8.05;4.63;;;6.10;99.90;;;;;;5056310;28;20357;-81
2022/04/16 01:59:49;;;;;;;9.27;4.47;;;6.10;99.90;;;;;;5074270;28;20024;-81
2022/04/16 02:02:15;;;;;;;8.32;3.70;;;6.00;99.90;;;;;;5073697;28;20117;-80
2022/04/16 02:04:41;;;;;;;8.40;3.75;;;6.00;99.90;;;;;;5074021;28;20515;-81
2022/04/16 02:07:07;;;;;;;8.60;3.85;;;6.00;99.90;;;;;;5056255;28;20086;-81
2022/04/16 02:09:33;;;;;;;9.82;4.20;;;5.90;99.90;;;;;;5073788;28;20062;-80
2022/04/16 02:11:59;;;;;;;12.77;4.32;;;5.90;99.90;;;;;;5073175;28;20028;-80
2022/04/16 02:14:25;;;;;;;12.23;4.13;;;5.90;99.90;;;;;;5073608;28;20388;-81
2022/04/16 02:16:51;;;;;;;9.32;4.15;;;5.90;99.90;;;;;;5055982;28;20028;-81
2022/04/16 02:19:17;;;;;;;7.28;4.50;;;5.80;99.90;;;;;;5055605;28;20077;-81
2022/04/16 02:21:43;;;;;;;4.90;3.53;;;5.80;99.90;;;;;;5073755;28;20047;-80
2022/04/16 02:24:08;;;;;;;10.63;4.80;;;5.70;99.90;;;;;;5055449;28;20025;-81
2022/04/16 02:26:35;;;;;;;6.45;3.95;;;5.70;99.90;;;;;;5073068;28;20064;-80
2022/04/16 02:29:00;;;;;;;7.85;3.85;;;5.70;99.90;;;;;;5055738;28;20465;-80
2022/04/16 02:31:28;;;;;;;7.70;3.85;;;5.60;99.90;;;;;;5055270;28;20032;-81
2022/04/16 02:33:56;;;;;;;8.93;3.63;;;5.60;99.90;;;;;;5073189;28;20110;-81
2022/04/16 02:36:25;;;;;;;6.93;3.83;;;5.60;99.90;;;;;;5073368;28;20028;-80
2022/04/16 02:38:52;;;;;;;8.30;3.17;;;5.50;99.90;;;;;;5073283;28;20028;-81
2022/04/16 02:41:19;;;;;;;7.38;4.25;;;5.50;99.90;;;;;;5073229;28;20103;-81
2022/04/16 02:43:44;;;;;;;4.70;3.50;;;5.50;99.90;;;;;;5055432;28;20391;-81
2022/04/16 02:48:54;;;;;;;6.32;3.25;;;5.40;99.90;;;;;;5073104;28;20039;-81
2022/04/16 02:51:20;;;;;;;4.43;3.40;;;5.40;99.90;;;;;;5055292;28;20028;-81
2022/04/16 02:53:45;;;;;;;6.43;3.47;;;5.30;99.90;;;;;;5073066;28;20380;-81
2022/04/16 02:56:11;;;;;;;7.53;3.33;;;5.30;99.90;;;;;;5073069;28;20028;-80
2022/04/16 02:58:37;;;;;;;10.02;4.95;;;5.30;99.90;;;;;;5073025;28;20048;-80
2022/04/16 03:01:03;;;;;;;9.25;3.85;;;5.20;99.90;;;;;;5073056;28;20017;-81
2022/04/16 03:03:29;;;;;;;5.85;3.80;;;5.20;99.90;;;;;;5054543;28;20020;-81
2022/04/16 03:05:55;;;;;;;9.32;4.63;;;5.20;99.90;;;;;;5072951;28;20020;-81
2022/04/16 03:08:24;;;;;;;9.90;4.18;;;5.10;99.90;;;;;;5072876;28;20021;-80
2022/04/16 03:10:52;;;;;;;8.18;3.75;;;5.10;99.90;;;;;;5072884;28;20366;-80
2022/04/16 03:13:19;;;;;;;11.32;4.20;;;5.00;99.90;;;;;;5071831;28;20024;-80
2022/04/16 03:18:29;;;;;;;9.00;2.90;;;5.00;99.90;;;;;;5072796;28;20070;-80
2022/04/16 03:20:57;;;;;;;7.05;3.38;;;5.00;99.90;;;;;;5072509;28;20028;-80
2022/04/16 03:23:23;;;;;;;10.60;3.15;;;4.90;99.90;;;;;;5054724;28;20103;-80
2022/04/16 03:25:50;;;;;;;6.47;3.40;;;4.90;99.90;;;;;;5072675;28;20083;-80
2022/04/16 03:28:15;;;;;;;7.78;3.80;;;4.80;99.90;;;;;;5072721;28;20035;-80
2022/04/16 03:30:41;;;;;;;9.98;3.40;;;4.70;99.90;;;;;;5072817;28;20037;-80
2022/04/16 03:33:08;;;;;;;5.72;3.13;;;4.70;99.90;;;;;;5072479;28;20456;-80
2022/04/16 03:35:35;;;;;;;14.75;2.90;;;4.60;99.90;;;;;;5054584;28;20043;-80
2022/04/16 03:38:01;;;;;;;7.40;2.92;;;4.60;99.90;;;;;;5072884;28;20029;-80
2022/04/16 03:40:27;;;;;;;7.95;2.97;;;4.50;99.90;;;;;;5054659;28;20025;-80
2022/04/16 03:43:00;;;;;;;6.75;2.90;;;4.50;99.90;;;;;;5054619;28;20020;-80
2022/04/16 03:45:28;;;;;;;4.80;2.35;;;4.40;99.90;;;;;;5072679;28;20024;-80
2022/04/16 03:48:26;;;;;;;8.07;3.10;;;4.40;99.90;;;;;;5072432;28;21039;-91
2022/04/16 03:50:51;;;;;;;12.32;2.75;;;4.40;99.90;;;;;;5072885;28;20439;-91
2022/04/16 03:53:17;;;;;;;8.80;3.00;;;4.40;99.90;;;;;;5054889;28;20120;-91
2022/04/16 04:02:15;;;;;;;7.38;2.70;;;4.30;99.90;;;;;;5073082;28;20027;-92
2022/04/16 04:04:43;;;;;;;7.65;2.83;;;4.30;99.90;;;;;;5055166;28;20085;-92
2022/04/16 04:07:09;;;;;;;15.27;2.78;;;4.20;99.90;;;;;;5073016;28;20025;-92
2022/04/16 04:09:38;;;;;;;5.93;2.80;;;4.20;99.90;;;;;;5072642;28;20112;-91
2022/04/16 04:12:08;;;;;;;9.40;2.60;;;4.20;99.90;;;;;;5054980;28;20111;-91
2022/04/16 04:14:37;;;;;;;8.18;3.30;;;4.20;99.90;;;;;;5054571;28;20028;-92
2022/04/16 04:20:26;;;;;;;6.20;2.70;;;4.20;99.90;;;;;;5072802;28;20510;-91
2022/04/16 04:23:25;;;;;;;8.38;2.50;;;4.20;99.90;;;;;;5054758;28;20028;-91
2022/04/16 04:26:28;;;;;;;7.97;2.97;;;4.30;99.90;;;;;;5054782;28;20302;-92
2022/04/16 04:28:54;;;;;;;7.65;2.67;;;4.20;99.90;;;;;;5054722;28;20488;-91
2022/04/16 04:31:20;;;;;;;7.80;2.88;;;4.20;99.90;;;;;;5072606;28;20024;-91
2022/04/16 04:33:59;;;;;;;6.53;2.78;;;4.20;99.90;;;;;;5072445;28;20036;-92
2022/04/16 04:36:25;;;;;;;6.55;3.05;;;4.20;99.90;;;;;;5058042;28;20025;-91
2022/04/16 04:38:50;;;;;;;7.10;2.63;;;4.20;99.90;;;;;;5076301;28;20028;-91
2022/04/16 04:41:25;;;;;;;5.93;2.70;;;4.20;99.90;;;;;;5076393;28;20017;-92
2022/04/16 04:43:51;;;;;;;9.30;3.45;;;4.10;99.90;;;;;;5076006;28;20476;-91
2022/04/16 04:46:16;;;;;;;7.38;2.95;;;4.10;99.90;;;;;;5076146;28;20036;-91
2022/04/16 04:49:12;;;;;;;9.07;3.38;;;4.10;99.90;;;;;;5075977;28;20024;-91
2022/04/16 04:51:39;;;;;;;8.52;2.83;;;4.10;99.90;;;;;;5058199;28;20032;-91
2022/04/16 04:54:06;;;;;;;7.45;2.92;;;4.00;99.90;;;;;;5058012;28;20477;-91
2022/04/16 04:56:36;;;;;;;4.90;2.63;;;4.00;99.90;;;;;;5057966;28;20048;-91
2022/04/16 04:59:02;;;;;;;3.20;2.50;;;4.10;99.90;;;;;;5075952;28;20093;-91
2022/04/16 05:01:28;;;;;;;9.88;2.63;;;4.10;99.90;;;;;;5075708;28;20029;-91
2022/04/16 05:04:13;;;;;;;7.05;2.45;;;4.20;99.90;;;;;;5057664;28;20024;-92
2022/04/16 05:06:38;;;;;;;12.75;3.22;;;4.20;99.90;;;;;;5075735;28;20025;-92
2022/04/16 05:09:04;;;;;;;10.50;4.40;;;4.30;99.90;;;;;;5075737;28;20122;-92
2022/04/16 05:11:39;;;;;;;5.80;2.90;;;4.20;99.90;;;;;;5075320;28;20085;-91
2022/04/16 05:14:05;;;;;;;16.65;3.53;;;4.20;99.90;;;;;;5057436;28;20034;-92
2022/04/16 05:16:30;;;;;;;4.25;3.20;;;4.20;99.90;;;;;;5057525;28;20036;-92
2022/04/16 05:19:04;;;;;;;8.88;3.30;;;4.20;99.90;;;;;;5057329;28;20427;-92
2022/04/16 05:21:30;;;;;;;7.68;2.92;;;4.10;99.90;;;;;;5057332;28;20464;-80
2022/04/16 05:23:55;;;;;;;11.55;3.05;;;4.10;99.90;;;;;;5075015;28;20089;-81
2022/04/16 05:26:20;;;;;;;3.95;2.63;;;4.10;99.90;;;;;;5074862;28;20084;-81
2022/04/16 05:28:48;;;;;;;7.55;2.97;;;4.10;99.90;;;;;;5074863;28;20032;-81
2022/04/16 05:31:14;;;;;;;7.05;3.08;;;4.20;99.90;;;;;;5074977;28;20064;-81
2022/04/16 05:36:23;;;;;;;7.65;3.20;;;4.20;99.90;;;;;;5074791;28;20175;-80
2022/04/16 05:38:49;;;;;;;6.70;3.05;;;4.20;99.90;;;;;;5074762;28;20156;-80
2022/04/16 05:41:15;;;;;;;8.98;3.47;;;4.20;99.90;;;;;;5074738;28;20016;-81
2022/04/16 05:43:40;;;;;;;15.98;3.58;;;4.20;99.90;;;;;;5074473;28;20545;-80
2022/04/16 05:46:06;;;;;;;12.27;3.47;;;4.10;99.90;;;;;;5073603;28;20124;-80
2022/04/16 05:48:31;;;;;;;17.95;4.10;;;4.20;99.90;;;;;;5074046;28;20020;-81
2022/04/16 05:50:58;;;;;;;6.80;2.97;;;4.20;99.90;;;;;;5074312;28;20029;-81
2022/04/16 05:53:24;;;;;;;9.45;3.13;;;4.20;99.90;;;;;;5056507;28;20360;-81
2022/04/16 05:55:53;;;;;;;6.22;2.90;;;4.20;99.90;;;;;;5074501;28;20028;-81
2022/04/16 05:58:19;;;;;;;7.30;3.10;;;4.20;99.90;;;;;;5074415;28;20017;-81
2022/04/16 06:00:44;;;;;;;9.98;3.63;;;4.20;99.90;;;;;;5056618;28;20109;-80
2022/04/16 06:03:10;;;;;;;8.43;3.17;;;4.20;99.90;;;;;;5073930;28;20021;-80
2022/04/16 06:05:36;;;;;;;11.07;3.45;;;4.20;99.90;;;;;;5074265;28;20025;-81
2022/04/16 06:08:02;;;;;;;10.35;3.53;;;4.10;99.90;;;;;;5074180;28;20047;-82
2022/04/16 06:10:28;;;;;;;6.55;3.03;;;4.20;99.90;;;;;;5074351;28;20095;-80
2022/04/16 06:12:53;;;;;;;8.23;3.53;;;4.10;99.90;;;;;;5073914;28;20044;-81
2022/04/16 06:15:19;;;;;;;12.38;3.72;;;4.20;99.90;;;;;;5056165;28;20025;-80
2022/04/16 06:17:45;;;;;;;7.70;2.88;;;4.10;99.90;;;;;;5073622;28;20479;-81
2022/04/16 06:20:12;;;;;;;3.88;2.30;;;4.20;99.90;;;;;;5074010;28;20029;-80
2022/04/16 06:22:38;;;;;;;12.15;3.55;;;4.20;99.90;;;;;;5074099;28;20469;-80
2022/04/16 06:25:06;;;;;;;5.97;3.30;;;4.30;99.90;;;;;;5055890;28;20028;-80
2022/04/16 06:27:32;;;;;;;17.60;3.30;;;4.30;99.90;;;;;;5073646;28;20430;-80
2022/04/16 06:29:57;;;;;;;9.40;2.90;;;4.30;99.90;;;;;;5055998;28;20069;-80
2022/04/16 06:32:23;;;;;;;7.40;2.63;;;4.30;99.90;;;;;;5073324;28;20024;-80
2022/04/16 06:34:48;;;;;;;11.15;2.88;;;4.30;99.90;;;;;;5073585;28;20028;-80
2022/04/16 06:37:14;;;;;;;9.70;3.03;;;4.20;99.90;;;;;;5073728;28;20025;-80
2022/04/16 06:39:41;;;;;;;7.05;2.83;;;4.20;99.90;;;;;;5073489;28;20021;-80
2022/04/16 06:42:06;;;;;;;4.63;2.55;;;4.20;99.90;;;;;;5073519;28;20016;-80
2022/04/16 06:44:32;;;;;;;12.20;3.03;;;4.20;99.90;;;;;;5073526;28;20027;-80
2022/04/16 06:46:58;;;;;;;4.82;2.80;;;4.20;99.90;;;;;;5072980;28;20024;-80
2022/04/16 06:49:25;;;;;;;6.65;2.60;;;4.20;99.90;;;;;;5073347;28;20028;-80
2022/04/16 06:51:51;;;;;;;6.95;2.60;;;4.20;99.90;;;;;;5073190;28;20112;-80
2022/04/16 06:54:17;;;;;;;6.82;2.70;;;4.20;99.90;;;;;;5073271;28;20052;-80
2022/04/16 06:56:42;;;;;;;7.70;2.67;;;4.20;99.90;;;;;;5073160;28;20048;-80
2022/04/16 06:59:08;;;;;;;9.65;2.50;;;4.20;99.90;;;;;;5055072;28;20025;-80
2022/04/16 07:01:33;;;;;;;8.23;2.60;;;4.20;99.90;;;;;;5072847;28;20024;-80
2022/04/16 07:03:59;;;;;;;7.95;2.85;;;4.20;99.90;;;;;;5055067;28;20025;-80
2022/04/16 07:06:24;;;;;;;6.30;2.70;;;4.10;99.90;;;;;;5072979;28;20025;-80
2022/04/16 07:08:50;;;;;;;6.45;2.38;;;4.10;99.90;;;;;;5055129;28;20029;-80
2022/04/16 07:11:15;;;;;;;9.95;3.20;;;4.20;99.90;;;;;;5073289;28;20020;-80
2022/04/16 07:13:41;;;;;;;6.13;2.10;;;4.20;99.90;;;;;;5072866;28;20028;-80
2022/04/16 07:16:06;;;;;;;3.47;1.98;;;4.20;99.90;;;;;;5072660;28;20032;-80
2022/04/16 07:18:32;;;;;;;5.22;2.13;;;4.30;99.90;;;;;;5072980;28;20017;-80
2022/04/16 07:20:57;;;;;;;6.32;2.22;;;4.30;99.90;;;;;;5072929;28;20063;-80
2022/04/16 07:23:24;;;;;;;6.75;2.95;;;4.20;99.90;;;;;;5072802;28;20056;-80
2022/04/16 07:25:49;;;;;;;4.38;2.80;;;4.30;99.90;;;;;;5072677;28;20127;-80
2022/04/16 07:28:21;;;;;;;5.68;2.35;;;4.20;99.90;;;;;;5073054;28;20112;-80
2022/04/16 07:30:48;;;;;;;4.30;2.13;;;4.20;99.90;;;;;;5054863;28;20427;-80
2022/04/16 07:33:14;;;;;;;6.47;2.00;;;4.20;99.90;;;;;;5072468;28;20020;-81
2022/04/16 07:35:39;;;;;;;6.85;2.50;;;4.30;99.90;;;;;;5072735;28;20043;-80
2022/04/16 07:38:06;;;;;;;7.10;2.30;;;4.30;99.90;;;;;;5054958;28;20028;-80
2022/04/16 07:40:31;;;;;;;3.92;2.33;;;4.40;99.90;;;;;;5072786;28;20460;-80
2022/04/16 07:42:58;;;;;;;3.72;1.80;;;4.40;99.90;;;;;;5072601;28;20016;-81
2022/04/16 07:45:24;;;;;;;4.35;2.00;;;4.40;99.90;;;;;;5054901;28;20078;-81
2022/04/16 07:47:49;;;;;;;5.57;2.58;;;4.50;99.90;;;;;;5054363;28;20017;-80
2022/04/16 07:50:16;;;;;;;5.95;2.88;;;4.50;99.90;;;;;;5054795;28;20392;-80
2022/04/16 07:52:42;;;;;;;10.77;2.95;;;4.50;99.90;;;;;;5054558;28;20031;-80
2022/04/16 07:55:08;;;;;;;5.68;2.67;;;4.50;99.90;;;;;;5072569;28;20033;-80
2022/04/16 07:57:33;;;;;;;8.45;2.17;;;4.50;99.90;;;;;;5054733;28;20082;-80
2022/04/16 07:59:59;;;;;;;5.53;1.98;;;4.60;99.90;;;;;;5072515;28;20769;-80
2022/04/16 08:02:24;;;;;;;6.20;2.30;;;4.60;99.90;;;;;;5071797;28;20025;-80
2022/04/16 08:04:50;;;;;;;8.68;2.92;;;4.60;99.90;;;;;;5054229;28;20173;-80
2022/04/16 08:07:15;;;;;;;5.55;2.65;;;4.70;99.90;;;;;;5072464;28;20139;-80
2022/04/16 08:09:41;;;;;;;8.80;2.90;;;4.70;99.90;;;;;;5055000;28;20415;-80
2022/04/16 08:12:07;;;;;;;8.05;2.60;;;4.70;99.90;;;;;;5076291;28;20469;-80
2022/04/16 08:14:33;;;;;;;9.40;2.80;;;4.70;99.90;;;;;;5076252;28;20033;-80
2022/04/16 08:16:59;;;;;;;8.93;2.90;;;4.70;99.90;;;;;;5075770;28;20386;-81
2022/04/16 08:19:24;;;;;;;8.77;2.88;;;4.70;99.90;;;;;;5076149;28;20350;-80
2022/04/16 08:21:50;;;;;;;10.50;2.63;;;4.80;99.90;;;;;;5076168;28;20361;-80
2022/04/16 08:24:38;;;;;;;11.73;2.70;;;4.80;99.90;;;;;;5076386;28;20023;-80
2022/04/16 08:27:04;;;;;;;11.07;2.92;;;4.90;99.90;;;;;;5074789;28;20036;-80
2022/04/16 08:29:30;;;;;;;2.63;2.40;;;5.00;99.90;;;;;;5075014;28;20086;-80
2022/04/16 08:31:55;;;;;;;5.97;2.95;;;5.00;99.90;;;;;;5056636;28;20020;-80
2022/04/16 08:34:21;;;;;;;10.00;2.90;;;5.10;99.90;;;;;;5056675;28;20104;-81
2022/04/16 08:36:46;;;;;;;6.68;2.70;;;5.10;99.90;;;;;;5074655;28;20028;-80
2022/04/16 08:39:12;;;;;;;5.07;2.97;;;5.20;99.90;;;;;;5074827;28;20025;-81
2022/04/16 08:41:39;;;;;;;7.00;3.03;;;5.20;99.90;;;;;;5056775;28;20020;-80
2022/04/16 08:44:05;;;;;;;10.98;3.58;;;5.20;99.90;;;;;;5074614;28;20052;-80
2022/04/16 08:46:32;;;;;;;3.92;2.65;;;5.20;99.90;;;;;;5074545;28;20064;-80
2022/04/16 08:48:59;;;;;;;9.32;3.20;;;5.20;99.90;;;;;;5074505;28;20024;-80
2022/04/16 08:51:28;;;;;;;4.30;2.60;;;5.20;99.90;;;;;;5074401;28;20365;-80
2022/04/16 08:53:53;;;;;;;5.45;2.45;;;5.20;99.90;;;;;;5074427;28;20033;-80
2022/04/16 08:56:19;;;;;;;6.18;3.13;;;5.20;99.90;;;;;;5074500;28;20457;-81
2022/04/16 08:58:45;;;;;;;5.93;3.00;;;5.20;99.90;;;;;;5074531;28;20028;-80
2022/04/16 09:01:11;;;;;;;5.50;3.53;;;5.10;99.90;;;;;;5074054;28;20096;-80
2022/04/16 09:03:40;;;;;;;7.35;2.63;;;5.20;99.90;;;;;;5074229;28;20023;-80
2022/04/16 09:06:07;;;;;;;9.13;3.25;;;5.30;99.90;;;;;;5074368;28;20407;-80
2022/04/16 09:08:34;;;;;;;8.35;3.10;;;5.30;99.90;;;;;;5074432;28;20017;-80
2022/04/16 09:11:11;;;;;;;8.15;3.30;;;5.40;99.90;;;;;;5056254;28;20121;-80
2022/04/16 09:13:56;;;;;;;11.07;3.00;;;5.60;99.90;;;;;;5074453;28;20024;-80
2022/04/16 09:16:22;;;;;;;5.55;3.20;;;5.70;99.90;;;;;;5073627;28;20033;-80
2022/04/16 09:18:54;;;;;;;9.07;3.20;;;5.80;99.90;;;;;;5074124;28;20472;-80
2022/04/16 09:21:24;;;;;;;12.43;3.42;;;5.90;99.90;;;;;;5073944;28;20095;-81
2022/04/16 09:23:53;;;;;;;6.50;2.80;;;5.90;99.90;;;;;;5074015;28;20024;-81
2022/04/16 09:26:31;;;;;;;6.88;2.70;;;5.90;99.90;;;;;;5037618;28;1047630;-80
2022/04/16 09:29:07;;;;;;;3.85;2.40;;;5.80;99.90;;;;;;5075020;28;20321;-80
2022/04/16 09:31:34;;;;;;;5.97;3.05;;;5.80;99.90;;;;;;5056594;28;20024;-80
2022/04/16 09:34:00;;;;;;;8.57;3.13;;;5.70;99.90;;;;;;5074472;28;20430;-80
2022/04/16 09:36:27;;;;;;;8.23;4.07;;;5.70;99.90;;;;;;5074847;28;20052;-80
2022/04/16 09:39:22;;;;;;;6.57;2.92;;;5.70;99.90;;;;;;5056368;28;20021;-80
2022/04/16 09:41:51;;;;;;;5.65;3.47;;;5.70;99.90;;;;;;5072152;28;20039;-80
2022/04/16 09:44:27;;;;;;;10.55;3.03;;;5.70;99.90;;;;;;5074850;28;20025;-80
2022/04/16 09:46:55;;;;;;;6.60;3.13;;;5.90;99.90;;;;;;5074373;28;20024;-80
2022/04/16 09:49:21;;;;;;;8.07;3.50;;;6.00;99.90;;;;;;5074489;28;20024;-80
2022/04/16 09:51:49;;;;;;;7.88;3.70;;;6.10;99.90;;;;;;5074541;28;20032;-80
2022/04/16 09:54:16;;;;;;;10.73;3.95;;;6.30;99.90;;;;;;5074525;28;20035;-80
2022/04/16 09:56:46;;;;;;;8.32;3.45;;;6.50;99.90;;;;;;5074228;28;20035;-80
2022/04/16 09:59:14;;;;;;;9.50;3.20;;;6.60;99.90;;;;;;5074438;28;20048;-80
2022/04/16 10:01:47;;;;;;;5.75;3.10;;;6.70;99.90;;;;;;5074069;28;20016;-80
2022/04/16 10:04:20;;;;;;;5.88;3.47;;;6.80;99.90;;;;;;5074281;28;20353;-80
2022/04/16 10:06:47;;;;;;;5.68;2.92;;;6.80;99.90;;;;;;5074093;28;20029;-80
2022/04/16 10:09:22;;;;;;;8.73;3.67;;;6.90;99.90;;;;;;5074115;28;20020;-80
2022/04/16 10:14:49;;;;;;;9.20;3.17;;;6.80;99.90;;;;;;5074122;28;20112;-80
2022/04/16 10:17:15;;;;;;;9.50;3.20;;;6.70;99.90;;;;;;5053852;28;20027;-80
2022/04/16 10:19:45;;;;;;;6.75;3.20;;;6.80;99.90;;;;;;5073127;28;20025;-81
2022/04/16 10:22:22;;;;;;;11.63;3.67;;;6.90;99.90;;;;;;5070539;28;20032;-81
2022/04/16 10:24:48;;;;;;;13.38;5.05;;;7.00;99.90;;;;;;5070084;28;20039;-81
2022/04/16 10:27:21;;;;;;;11.52;4.22;;;7.00;99.90;;;;;;5069220;28;20040;-80
2022/04/16 10:29:47;;;;;;;8.10;3.50;;;7.00;99.90;;;;;;5054847;28;20491;-80
2022/04/16 10:32:17;;;;;;;9.68;3.30;;;7.10;99.90;;;;;;5053382;28;20024;-80
2022/04/16 10:34:43;;;;;;;6.88;3.40;;;7.20;99.90;;;;;;5072353;28;20060;-81
2022/04/16 10:37:21;;;;;;;8.77;2.95;;;7.20;99.90;;;;;;5073079;28;20016;-81
2022/04/16 10:39:49;;;;;;;8.77;3.20;;;7.20;99.90;;;;;;5038634;28;20039;-80
2022/04/16 10:42:15;;;;;;;3.85;2.80;;;7.30;99.90;;;;;;5054155;28;20052;-80
2022/04/16 10:44:47;;;;;;;7.05;3.10;;;7.30;99.90;;;;;;5072950;28;20055;-81
2022/04/16 10:47:14;;;;;;;7.22;3.50;;;7.40;99.90;;;;;;5071874;28;20028;-80
2022/04/16 10:49:41;;;;;;;7.85;3.33;;;7.50;99.90;;;;;;5073034;28;20476;-80
2022/04/16 10:52:28;;;;;;;5.57;3.00;;;7.70;99.90;;;;;;5054157;28;20025;-81
2022/04/16 10:55:01;;;;;;;9.75;3.20;;;7.80;99.90;;;;;;5072078;28;20021;-81
2022/04/16 10:57:26;;;;;;;5.63;2.85;;;7.90;99.90;;;;;;5046661;28;20025;-80
2022/04/16 10:59:59;;;;;;;9.88;3.40;;;7.90;99.90;;;;;;5053322;28;20021;-80
2022/04/16 11:02:26;;;;;;;13.27;4.20;;;8.00;99.90;;;;;;5071764;28;20017;-80
2022/04/16 11:04:56;;;;;;;3.55;2.88;;;8.10;99.90;;;;;;5072964;28;20016;-80
2022/04/16 11:07:23;;;;;;;6.35;2.70;;;8.20;99.90;;;;;;5054269;28;20016;-80
2022/04/16 11:09:51;;;;;;;15.02;4.13;;;8.10;99.90;;;;;;5071594;28;20024;-80
2022/04/16 11:12:21;;;;;;;3.85;3.00;;;8.10;99.90;;;;;;5072140;28;20369;-81
2022/04/16 11:14:54;;;;;;;12.93;3.65;;;8.20;99.90;;;;;;5071659;28;20017;-80
2022/04/16 11:17:20;;;;;;;6.15;2.90;;;8.20;99.90;;;;;;5062972;28;20048;-80
2022/04/16 11:20:05;;;;;;;3.97;2.63;;;8.20;99.90;;;;;;5052841;28;20033;-80
2022/04/16 11:22:30;;;;;;;5.68;2.63;;;8.30;99.90;;;;;;5051219;28;20021;-78
2022/04/16 11:25:00;;;;;;;5.75;2.47;;;8.30;99.90;;;;;;5072838;28;20508;-78
2022/04/16 11:35:59;;;;;;;3.63;2.80;;;8.60;99.90;;;;;;5073037;28;20027;-77
2022/04/16 11:38:35;;;;;;;3.75;2.63;;;8.70;99.90;;;;;;5072625;28;20020;-78
2022/04/16 11:41:06;;;;;;;5.70;3.03;;;8.70;99.90;;;;;;5072152;28;20033;-78
2022/04/16 11:43:33;;;;;;;3.72;2.60;;;8.80;99.90;;;;;;5072357;28;20067;-78
2022/04/16 11:46:00;;;;;;;7.57;2.67;;;8.80;99.90;;;;;;5049106;28;20087;-78
2022/04/16 11:48:26;;;;;;;13.75;2.90;;;8.90;99.90;;;;;;5054780;28;20044;-79
2022/04/16 11:50:52;;;;;;;3.90;2.88;;;8.90;99.90;;;;;;5054500;28;20029;-77
2022/04/16 11:53:18;;;;;;;7.13;2.80;;;9.00;99.90;;;;;;5071760;28;20479;-77
2022/04/16 11:55:45;;;;;;;6.78;2.55;;;9.10;99.90;;;;;;5071965;28;20030;-77
2022/04/16 11:58:11;;;;;;;6.72;2.42;;;9.10;99.90;;;;;;5071706;28;20021;-77
2022/04/16 12:00:48;;;;;;;4.45;2.38;;;9.20;99.90;;;;;;5071780;28;20035;-77
2022/04/16 12:03:14;;;;;;;5.07;2.80;;;9.20;99.90;;;;;;5053218;28;20411;-77
2022/04/16 12:05:42;;;;;;;5.80;2.63;;;9.20;99.90;;;;;;5071312;28;20036;-79
2022/04/16 12:08:10;;;;;;;9.57;2.47;;;9.30;99.90;;;;;;5072278;28;20360;-79
2022/04/16 12:10:39;;;;;;;3.72;2.20;;;9.40;99.90;;;;;;5054506;28;20488;-79
2022/04/16 12:13:10;;;;;;;2.47;1.83;;;9.40;99.90;;;;;;5072267;28;20081;-79
2022/04/16 12:15:44;;;;;;;3.92;2.47;;;9.40;99.90;;;;;;5071412;28;20036;-79
2022/04/16 12:18:23;;;;;;;2.80;1.98;;;9.50;99.90;;;;;;5071667;28;20024;-79
2022/04/16 12:20:48;;;;;;;3.05;1.85;;;9.60;99.90;;;;;;5071736;28;20024;-79
2022/04/16 12:23:22;;;;;;;4.57;2.33;;;9.60;99.90;;;;;;5071272;28;20024;-80
2022/04/16 12:25:48;;;;;;;4.40;2.08;;;9.80;99.90;;;;;;5072159;28;20052;-80
2022/04/16 12:28:14;;;;;;;8.77;2.20;;;9.90;99.90;;;;;;5053546;28;20453;-82
2022/04/16 12:30:49;;;;;;;4.95;2.22;;;10.00;99.90;;;;;;5053464;28;20029;-80
2022/04/16 12:33:14;;;;;;;3.83;2.20;;;10.10;99.90;;;;;;5072196;28;20421;-80
2022/04/16 12:35:44;;;;;;;4.10;2.38;;;10.20;99.90;;;;;;5071778;28;20112;-80
2022/04/16 12:38:14;;;;;;;5.40;2.13;;;10.20;99.90;;;;;;5071236;28;20399;-81
2022/04/16 12:40:41;;;;;;;3.00;1.75;;;10.30;99.90;;;;;;5054196;28;20021;-81
2022/04/16 12:43:07;;;;;;;5.03;1.83;;;10.40;99.90;;;;;;5071745;28;20027;-81
2022/04/16 12:45:34;;;;;;;4.57;1.80;;;10.50;99.90;;;;;;5071705;28;20100;-81
2022/04/16 12:48:00;;;;;;;4.10;2.00;;;10.50;99.90;;;;;;5071750;28;20032;-80
2022/04/16 12:50:28;;;;;;;3.35;1.88;;;10.60;99.90;;;;;;5071723;28;20028;-80
2022/04/16 12:52:54;;;;;;;2.13;1.60;;;10.60;99.90;;;;;;5070940;28;20025;-83
2022/04/16 12:55:20;;;;;;;5.10;2.08;;;10.60;99.90;;;;;;5069655;28;20025;-81
2022/04/16 12:57:46;;;;;;;4.05;2.00;;;10.60;99.90;;;;;;5073952;28;20020;-80
2022/04/16 13:00:13;;;;;;;7.80;2.33;;;10.60;99.90;;;;;;5074223;28;20108;-81
2022/04/16 13:02:41;;;;;;;3.25;1.50;;;10.60;99.90;;;;;;5073791;28;20057;-81
2022/04/16 13:05:08;;;;;;;3.65;1.63;;;10.70;99.90;;;;;;5075206;28;20020;-81
2022/04/16 13:07:35;;;;;;;4.55;2.55;;;10.60;99.90;;;;;;5056860;28;20035;-80
2022/04/16 13:10:00;;;;;;;3.40;1.95;;;10.70;99.90;;;;;;5073332;28;20036;-80
2022/04/16 13:12:26;;;;;;;4.35;1.92;;;10.80;99.90;;;;;;5074551;28;20028;-80
2022/04/16 13:14:51;;;;;;;3.80;1.95;;;10.90;99.90;;;;;;5074243;28;20039;-80
2022/04/16 13:17:17;;;;;;;2.53;1.83;;;10.90;99.90;;;;;;5056159;28;20024;-80
2022/04/16 13:19:43;;;;;;;4.40;1.75;;;10.90;99.90;;;;;;5055683;28;20070;-81
2022/04/16 13:22:09;;;;;;;3.85;1.70;;;10.90;99.90;;;;;;5055874;28;20383;-81
2022/04/16 13:24:36;;;;;;;4.30;1.83;;;10.90;99.90;;;;;;5055737;28;20032;-79
2022/04/16 13:27:06;;;;;;;6.20;2.08;;;10.90;99.90;;;;;;5056714;28;20044;-79